KBOK

Brookings Airport

Brookings, Oregon, USA
METAR KBOK 201456Z AUTO VRB03KT 10SM BKN048 OVC065 01/M03 A3025 RMK AO2 SLP259 T00061028 58003
Observed Flight Rules
Feb-20 @ 14:56 UTC (5 hours ago) Visual Flight Rules
Wind Visibility Clouds
Variable at 3 knots 10 miles
  • Broken at 4,800' AGL
  • Overcast at 6,500' AGL
Temperatures Readings
Current 1°C / 34°F
Dewpoint -3°C / 27°F
Humidity 75%
Altimeter 30.25" Hg
Pressure 1025.9 hPa
Elevation 140
METAR KBOK 201456Z AUTO VRB03KT 10SM BKN048 OVC065 01/M03 A3025 RMK AO2 SLP259 T00061028 58003
Observed Flight Rules
Feb-20 @ 14:56 UTC
(5 hours ago)
VFR
Wind Visibility
Variable at 3 knots 10 miles
Clouds
  • Broken at 4,800' AGL
  • Overcast at 6,500' AGL
Temperature Dewpoint
1°C / 34°F -3°C / 27°F
Humidity Altimeter Pressure
75% 30.25" Hg 1025.9 hPa